Time;durP1;ratioP1;P1;durP2;ratioP2;P2;SDS_P1;SDS_P2;PMS_P1;PMS_P2;Temp;Humidity;BMP_temperature;BMP_pressure;BME280_temperature;BME280_humidity;BME280_pressure;Samples;Min_cycle;Max_cycle;Signal;HPM_P1;HPM_P2
2023/07/30 00:03:05;;;;;;;8.52;3.00;;;;;15.40;100492.00;;;;10394415;28;20205;-79
2023/07/30 00:08:06;;;;;;;12.40;3.70;;;;;15.40;100500.00;;;;10413179;28;20205;-78
2023/07/30 00:13:08;;;;;;;7.45;2.92;;;;;15.40;100507.00;;;;10400158;28;20211;-77
2023/07/30 00:18:09;;;;;;;10.00;3.08;;;;;15.30;100507.00;;;;10398144;28;20229;-78
2023/07/30 00:23:10;;;;;;;12.93;3.00;;;;;15.20;100513.00;;;;10419123;28;20845;-77
2023/07/30 00:28:12;;;;;;;11.88;3.38;;;;;15.10;100511.00;;;;10400937;28;20284;-79
2023/07/30 00:33:13;;;;;;;13.18;4.22;;;;;15.10;100516.00;;;;10397288;28;20214;-77
2023/07/30 00:38:15;;;;;;;9.80;3.55;;;;;15.20;100510.00;;;;10417531;28;20946;-78
2023/07/30 00:43:17;;;;;;;11.02;3.70;;;;;15.20;100514.00;;;;10383825;28;20375;-80
2023/07/30 00:48:18;;;;;;;15.02;3.75;;;;;15.20;100516.00;;;;10414672;28;20319;-78
2023/07/30 00:53:22;;;;;;;10.20;3.88;;;;;15.10;100512.00;;;;10380302;28;20209;-79
2023/07/30 00:58:23;;;;;;;13.45;3.78;;;;;15.10;100528.00;;;;10419297;28;20228;-77
2023/07/30 01:03:26;;;;;;;18.30;3.33;;;;;15.10;100532.00;;;;10399203;28;20217;-77
2023/07/30 01:08:27;;;;;;;18.75;3.78;;;;;15.10;100531.00;;;;10417875;28;20668;-76
2023/07/30 01:13:30;;;;;;;10.32;3.55;;;;;15.20;100538.00;;;;10419731;28;20205;-76
2023/07/30 01:18:31;;;;;;;16.40;3.33;;;;;15.20;100534.00;;;;10383522;28;20235;-77
2023/07/30 01:23:33;;;;;;;15.80;3.85;;;;;15.30;100546.00;;;;10424679;28;20216;-77
2023/07/30 01:28:48;;;;;;;15.50;3.58;;;;;15.50;100556.00;;;;10386628;28;20284;-76
2023/07/30 01:33:52;;;;;;;15.88;3.65;;;;;15.60;100551.00;;;;10402184;28;20868;-76
2023/07/30 01:38:54;;;;;;;12.93;3.38;;;;;15.60;100548.00;;;;10401810;28;20528;-76
2023/07/30 01:43:55;;;;;;;12.60;3.30;;;;;15.60;100548.00;;;;10397312;28;20278;-76
2023/07/30 01:48:56;;;;;;;14.30;3.40;;;;;15.70;100553.00;;;;10412881;28;20233;-75
2023/07/30 01:53:58;;;;;;;13.35;3.20;;;;;15.70;100555.00;;;;10416944;28;20211;-78
2023/07/30 01:58:59;;;;;;;9.52;3.10;;;;;15.70;100554.00;;;;10414276;28;20239;-77
2023/07/30 02:04:00;;;;;;;11.63;3.83;;;;;15.80;100549.00;;;;10414568;28;20208;-76
2023/07/30 02:09:02;;;;;;;17.90;3.35;;;;;15.70;100543.00;;;;10415339;28;21926;-75
2023/07/30 02:14:03;;;;;;;10.73;3.33;;;;;15.70;100545.00;;;;10399797;28;20212;-77
2023/07/30 02:19:05;;;;;;;14.27;3.38;;;;;15.70;100550.00;;;;10402042;28;21464;-76
2023/07/30 02:24:09;;;;;;;11.77;3.25;;;;;15.70;100548.00;;;;10422903;28;20394;-76
2023/07/30 02:29:11;;;;;;;9.75;3.50;;;;;15.70;100554.00;;;;10397107;28;20640;-76
2023/07/30 02:34:12;;;;;;;16.77;3.22;;;;;15.60;100548.00;;;;10411710;28;20205;-76
2023/07/30 02:39:13;;;;;;;15.30;3.40;;;;;15.60;100544.00;;;;10415300;28;20232;-76
2023/07/30 02:44:15;;;;;;;15.40;3.63;;;;;15.60;100549.00;;;;10389429;28;20208;-78
2023/07/30 02:49:16;;;;;;;14.82;3.42;;;;;15.60;100537.00;;;;10392406;28;20216;-78
2023/07/30 02:54:20;;;;;;;16.98;4.05;;;;;15.50;100539.00;;;;10380433;28;20216;-78
2023/07/30 02:59:22;;;;;;;12.00;3.45;;;;;15.50;100537.00;;;;10384401;28;20611;-79
2023/07/30 03:04:23;;;;;;;15.32;3.45;;;;;15.50;100540.00;;;;10400771;28;21629;-76
2023/07/30 03:09:24;;;;;;;19.25;3.38;;;;;15.40;100538.00;;;;10400368;28;20745;-77
2023/07/30 03:14:26;;;;;;;11.38;2.90;;;;;15.40;100530.00;;;;10415934;28;20291;-75
2023/07/30 03:19:27;;;;;;;12.63;3.20;;;;;15.40;100545.00;;;;10414692;28;20589;-77
2023/07/30 03:24:29;;;;;;;19.05;3.22;;;;;15.30;100540.00;;;;10424383;28;21549;-80
2023/07/30 03:29:30;;;;;;;20.35;2.90;;;;;15.40;100536.00;;;;10420674;28;20373;-76
2023/07/30 03:34:31;;;;;;;12.93;3.42;;;;;15.50;100547.00;;;;10418824;28;20220;-79
2023/07/30 03:39:33;;;;;;;12.35;3.70;;;;;15.60;100552.00;;;;10383733;28;20318;-76
2023/07/30 03:44:35;;;;;;;22.38;4.68;;;;;15.60;100549.00;;;;10396455;28;20614;-76
2023/07/30 03:49:37;;;;;;;19.17;3.30;;;;;15.70;100558.00;;;;10394978;28;20907;-78
2023/07/30 03:54:38;;;;;;;12.00;3.38;;;;;15.70;100547.00;;;;10421960;28;20225;-77
2023/07/30 03:59:39;;;;;;;16.05;3.92;;;;;15.80;100566.00;;;;10424084;28;20633;-79
2023/07/30 04:04:44;;;;;;;13.65;3.35;;;;;15.80;100568.00;;;;10403278;28;20257;-76
2023/07/30 04:09:45;;;;;;;14.50;3.70;;;;;15.80;100574.00;;;;10382583;28;20220;-77
2023/07/30 04:14:47;;;;;;;19.33;2.97;;;;;15.80;100575.00;;;;10416754;28;20920;-80
2023/07/30 04:19:48;;;;;;;14.43;3.40;;;;;15.70;100567.00;;;;10407542;28;20546;-77
2023/07/30 04:24:50;;;;;;;16.98;3.70;;;;;15.70;100574.00;;;;10415656;28;20528;-75
2023/07/30 04:29:51;;;;;;;21.75;4.03;;;;;15.70;100580.00;;;;10393776;28;20209;-78
2023/07/30 04:34:53;;;;;;;11.13;2.95;;;;;15.70;100573.00;;;;10379859;28;20251;-76
2023/07/30 04:39:54;;;;;;;15.52;3.10;;;;;15.70;100583.00;;;;10416319;28;20205;-79
2023/07/30 04:44:56;;;;;;;12.75;3.42;;;;;15.80;100574.00;;;;10395178;28;20243;-79
2023/07/30 04:49:58;;;;;;;20.80;3.63;;;;;15.80;100592.00;;;;10383457;28;20200;-76
2023/07/30 04:54:59;;;;;;;16.85;3.50;;;;;15.80;100601.00;;;;10423785;28;20278;-76
2023/07/30 05:00:00;;;;;;;14.45;3.15;;;;;15.90;100594.00;;;;10402853;28;20216;-75
2023/07/30 05:05:03;;;;;;;16.17;3.90;;;;;16.10;100601.00;;;;10397862;28;20316;-77
2023/07/30 05:10:07;;;;;;;17.35;3.47;;;;;16.20;100594.00;;;;10401945;28;20319;-77
2023/07/30 05:15:09;;;;;;;17.35;3.58;;;;;16.20;100599.00;;;;10400929;28;20232;-77
2023/07/30 05:20:10;;;;;;;17.02;3.70;;;;;16.30;100596.00;;;;10419760;28;20447;-78
2023/07/30 05:25:11;;;;;;;14.57;3.17;;;;;16.30;100603.00;;;;10422481;28;20756;-78
2023/07/30 05:30:13;;;;;;;17.70;3.30;;;;;16.40;100607.00;;;;10418969;28;20690;-76
2023/07/30 05:35:14;;;;;;;14.68;3.78;;;;;16.40;100611.00;;;;10419119;28;20217;-76
2023/07/30 05:40:16;;;;;;;14.90;3.10;;;;;16.50;100609.00;;;;10399231;28;20208;-79
2023/07/30 05:45:17;;;;;;;20.25;3.72;;;;;16.60;100610.00;;;;10381994;28;20804;-77
2023/07/30 05:50:20;;;;;;;20.08;3.78;;;;;16.80;100604.00;;;;10386565;28;21157;-77
2023/07/30 05:55:22;;;;;;;13.48;3.40;;;;;17.10;100605.00;;;;10416679;28;20221;-77
2023/07/30 06:00:24;;;;;;;15.30;3.85;;;;;17.20;100610.00;;;;10417013;28;20205;-78
2023/07/30 06:05:25;;;;;;;18.58;3.58;;;;;17.30;100619.00;;;;10401142;28;20297;-79
2023/07/30 06:10:26;;;;;;;17.67;3.28;;;;;17.30;100618.00;;;;10390388;28;20773;-77
2023/07/30 06:15:28;;;;;;;23.00;4.47;;;;;17.30;100623.00;;;;10402590;28;20221;-77
2023/07/30 06:20:30;;;;;;;20.05;3.40;;;;;17.30;100635.00;;;;10415439;28;20262;-77
2023/07/30 06:25:31;;;;;;;16.77;3.97;;;;;17.20;100642.00;;;;10420337;28;20205;-77
2023/07/30 06:30:32;;;;;;;13.02;3.25;;;;;17.30;100646.00;;;;10421003;28;20621;-80
2023/07/30 06:35:34;;;;;;;17.67;4.07;;;;;17.40;100635.00;;;;10418457;28;20302;-77
2023/07/30 06:40:35;;;;;;;16.30;3.55;;;;;17.50;100634.00;;;;10416106;28;20270;-79
2023/07/30 06:45:37;;;;;;;20.67;3.88;;;;;17.60;100640.00;;;;10413785;28;20232;-76
2023/07/30 06:50:39;;;;;;;13.95;3.33;;;;;17.70;100644.00;;;;10400816;28;20274;-79
2023/07/30 06:55:40;;;;;;;16.15;3.63;;;;;17.50;100650.00;;;;10426389;28;20217;-76
2023/07/30 07:00:41;;;;;;;17.25;4.13;;;;;17.70;100656.00;;;;10387312;28;20216;-80
2023/07/30 07:05:43;;;;;;;19.88;4.40;;;;;19.20;100657.00;;;;10414549;28;20213;-79
2023/07/30 07:10:46;;;;;;;11.52;3.25;;;;;19.10;100643.00;;;;10424536;28;20501;-77
2023/07/30 07:15:47;;;;;;;18.75;3.90;;;;;20.10;100649.00;;;;10389321;28;21618;-78
2023/07/30 07:20:48;;;;;;;15.55;3.65;;;;;20.70;100651.00;;;;10423951;28;20296;-79
2023/07/30 07:25:51;;;;;;;13.85;3.08;;;;;21.30;100653.00;;;;10412551;28;20322;-79
2023/07/30 07:30:54;;;;;;;16.13;3.90;;;;;21.50;100661.00;;;;10413209;28;20753;-77
2023/07/30 07:36:06;;;;;;;15.25;3.53;;;;;22.30;100649.00;;;;10394070;28;20221;-79
2023/07/30 07:41:07;;;;;;;11.52;3.28;;;;;23.30;100649.00;;;;10397612;28;20806;-77
2023/07/30 07:46:13;;;;;;;10.07;3.20;;;;;23.50;100651.00;;;;10413610;28;20819;-77
2023/07/30 07:51:14;;;;;;;12.60;2.97;;;;;22.50;100657.00;;;;10409882;28;20221;-78
2023/07/30 07:56:15;;;;;;;9.52;3.00;;;;;23.40;100663.00;;;;10413085;28;20217;-77
2023/07/30 08:01:17;;;;;;;13.45;2.78;;;;;24.00;100651.00;;;;10414847;28;20235;-79
2023/07/30 08:06:18;;;;;;;10.48;3.05;;;;;24.10;100657.00;;;;10412642;28;20208;-79
2023/07/30 08:11:20;;;;;;;13.23;3.13;;;;;24.00;100650.00;;;;10412244;28;20218;-77
2023/07/30 08:16:21;;;;;;;9.25;2.67;;;;;23.60;100660.00;;;;10410555;28;20650;-77
2023/07/30 08:21:23;;;;;;;10.60;2.45;;;;;22.90;100660.00;;;;10414005;28;20205;-78
2023/07/30 08:26:24;;;;;;;11.30;2.55;;;;;23.70;100655.00;;;;10396778;28;20573;-78
2023/07/30 08:31:25;;;;;;;9.90;2.65;;;;;23.80;100661.00;;;;10410112;28;20247;-79
2023/07/30 08:36:27;;;;;;;9.48;2.30;;;;;23.30;100662.00;;;;10394174;28;20820;-76
2023/07/30 08:41:29;;;;;;;8.40;2.42;;;;;23.10;100673.00;;;;10419600;28;20205;-79
2023/07/30 08:46:30;;;;;;;7.72;2.28;;;;;23.00;100669.00;;;;10394190;28;20539;-78
2023/07/30 08:51:34;;;;;;;7.65;3.08;;;;;23.80;100684.00;;;;10390726;28;20213;-80
2023/07/30 08:56:35;;;;;;;14.82;2.72;;;;;22.70;100698.00;;;;10398299;28;20225;-78
2023/07/30 09:01:39;;;;;;;10.52;2.53;;;;;22.30;100699.00;;;;10405180;28;21135;-78
2023/07/30 09:06:41;;;;;;;4.38;1.75;;;;;20.80;100710.00;;;;10374943;28;20209;-80
2023/07/30 09:11:42;;;;;;;4.82;1.65;;;;;18.60;100724.00;;;;10396749;28;20202;-76
2023/07/30 09:16:44;;;;;;;6.70;1.52;;;;;17.90;100716.00;;;;10390725;28;20555;-77
2023/07/30 09:21:45;;;;;;;8.95;2.50;;;;;18.20;100734.00;;;;10390339;28;20216;-79
2023/07/30 09:26:46;;;;;;;7.13;1.83;;;;;18.70;100728.00;;;;10418252;28;20198;-78
2023/07/30 09:31:56;;;;;;;9.43;2.15;;;;;19.30;100737.00;;;;10397943;28;20262;-77
2023/07/30 09:36:57;;;;;;;8.13;2.03;;;;;18.20;100743.00;;;;10387960;28;21287;-78
2023/07/30 09:42:00;;;;;;;13.73;2.25;;;;;17.70;100754.00;;;;10392398;28;21903;-74
2023/07/30 09:47:05;;;;;;;7.05;1.98;;;;;17.30;100753.00;;;;10435264;28;20209;-76
2023/07/30 09:52:06;;;;;;;7.75;2.00;;;;;18.00;100758.00;;;;10406594;28;20220;-78
2023/07/30 09:57:07;;;;;;;6.97;1.88;;;;;18.10;100753.00;;;;10403547;28;21342;-77
2023/07/30 10:02:11;;;;;;;11.27;2.47;;;;;16.80;100774.00;;;;10408738;28;20287;-76
2023/07/30 10:07:18;;;;;;;11.18;2.67;;;;;17.00;100772.00;;;;10411934;28;20602;-77
2023/07/30 10:12:30;;;;;;;6.05;2.13;;;;;17.50;100771.00;;;;10396487;28;20251;-77
2023/07/30 10:17:32;;;;;;;10.15;2.25;;;;;18.50;100777.00;;;;10414429;28;21611;-79
2023/07/30 10:22:38;;;;;;;9.02;2.92;;;;;19.50;100775.00;;;;10418333;28;20220;-80
2023/07/30 10:27:46;;;;;;;13.27;2.58;;;;;20.50;100766.00;;;;10417122;28;20336;-79
2023/07/30 10:32:59;;;;;;;10.68;2.33;;;;;21.40;100752.00;;;;10395194;28;20288;-79
2023/07/30 10:38:32;;;;;;;9.95;2.10;;;;;22.00;100764.00;;;;10396379;28;20480;-78
2023/07/30 10:43:39;;;;;;;9.05;2.53;;;;;22.80;100756.00;;;;10393888;28;21039;-79
2023/07/30 10:48:42;;;;;;;8.23;2.13;;;;;23.60;100750.00;;;;10407204;28;21511;-77
2023/07/30 10:53:44;;;;;;;15.05;2.88;;;;;22.80;100756.00;;;;10395894;28;20338;-79
2023/07/30 10:58:50;;;;;;;6.65;2.00;;;;;23.30;100750.00;;;;10398562;28;20256;-77
2023/07/30 11:03:52;;;;;;;7.88;2.67;;;;;23.80;100762.00;;;;10415382;28;20625;-80
2023/07/30 11:08:54;;;;;;;9.30;2.38;;;;;25.60;100768.00;;;;10415483;28;20206;-80
2023/07/30 11:13:56;;;;;;;9.05;2.22;;;;;25.00;100762.00;;;;10399534;28;20286;-79
2023/07/30 11:18:57;;;;;;;7.95;2.28;;;;;25.20;100765.00;;;;10413378;28;20213;-79
2023/07/30 11:23:59;;;;;;;8.73;2.30;;;;;24.30;100772.00;;;;10396607;28;20692;-78
2023/07/30 11:29:00;;;;;;;8.18;2.45;;;;;22.80;100766.00;;;;10400439;28;20320;-80
2023/07/30 11:34:01;;;;;;;7.30;2.30;;;;;22.10;100770.00;;;;10416318;28;20220;-80
2023/07/30 11:39:03;;;;;;;7.20;2.05;;;;;22.10;100772.00;;;;10400836;28;20314;-78
2023/07/30 11:44:05;;;;;;;9.05;1.90;;;;;23.80;100765.00;;;;10425712;28;21421;-79
2023/07/30 11:49:16;;;;;;;9.85;1.67;;;;;24.20;100772.00;;;;10406021;28;20664;-76
2023/07/30 11:54:25;;;;;;;12.57;2.13;;;;;24.50;100770.00;;;;10389785;28;20241;-78
2023/07/30 11:59:26;;;;;;;7.22;1.83;;;;;25.40;100765.00;;;;10400174;28;20236;-79
2023/07/30 12:04:44;;;;;;;7.32;1.63;;;;;26.40;100763.00;;;;10413945;28;20209;-78
2023/07/30 12:09:45;;;;;;;7.60;1.70;;;;;27.00;100766.00;;;;10377891;28;20577;-79
2023/07/30 12:14:46;;;;;;;5.13;1.77;;;;;26.90;100746.00;;;;10406898;28;20205;-78
2023/07/30 12:19:48;;;;;;;4.72;1.33;;;;;27.30;100761.00;;;;10415819;28;20205;-80
2023/07/30 12:24:49;;;;;;;6.32;1.60;;;;;27.90;100764.00;;;;10389932;28;20596;-79
2023/07/30 12:29:50;;;;;;;4.85;1.25;;;;;26.90;100771.00;;;;10402893;28;20685;-77
2023/07/30 12:34:52;;;;;;;5.35;1.50;;;;;25.60;100768.00;;;;10368423;28;20596;-78
2023/07/30 12:39:53;;;;;;;5.35;1.75;;;;;25.60;100773.00;;;;10393228;28;20194;-78
2023/07/30 12:44:54;;;;;;;4.15;1.77;;;;;26.60;100763.00;;;;10415160;28;21239;-78
2023/07/30 12:49:58;;;;;;;5.70;1.80;;;;;26.50;100767.00;;;;10409546;28;20201;-80
2023/07/30 12:55:01;;;;;;;6.68;1.80;;;;;24.90;100768.00;;;;10413800;28;21005;-79
2023/07/30 13:00:04;;;;;;;7.50;1.90;;;;;25.00;100749.00;;;;10409434;28;20602;-78
2023/07/30 13:05:06;;;;;;;8.32;1.83;;;;;26.50;100759.00;;;;10390043;28;20316;-79
2023/07/30 13:10:08;;;;;;;4.97;1.83;;;;;27.40;100748.00;;;;10390034;28;20209;-79
2023/07/30 13:15:10;;;;;;;5.75;1.50;;;;;27.30;100766.00;;;;10407077;28;20225;-79
2023/07/30 13:20:11;;;;;;;4.25;1.50;;;;;26.80;100755.00;;;;10379966;28;20640;-79
2023/07/30 13:25:13;;;;;;;2.72;1.50;;;;;26.60;100746.00;;;;10413576;28;20456;-79
2023/07/30 13:30:14;;;;;;;5.95;1.67;;;;;26.60;100757.00;;;;10399206;28;20753;-78
2023/07/30 13:35:15;;;;;;;5.18;1.63;;;;;27.00;100756.00;;;;10400017;28;20897;-78
2023/07/30 13:40:17;;;;;;;5.32;1.80;;;;;27.50;100775.00;;;;10414445;28;20625;-79
2023/07/30 13:45:18;;;;;;;6.28;1.70;;;;;26.80;100771.00;;;;10422686;28;20833;-78
2023/07/30 13:50:19;;;;;;;4.68;1.73;;;;;27.20;100780.00;;;;10398136;28;20217;-79
2023/07/30 13:55:21;;;;;;;7.68;1.70;;;;;27.50;100769.00;;;;10415250;28;20217;-78
2023/07/30 14:00:22;;;;;;;4.43;1.63;;;;;26.30;100777.00;;;;10419469;28;20197;-79
2023/07/30 14:05:23;;;;;;;7.70;2.15;;;;;26.60;100767.00;;;;10430932;28;20200;-79
2023/07/30 14:10:25;;;;;;;6.68;2.28;;;;;26.20;100762.00;;;;10394478;28;20222;-79
2023/07/30 14:15:26;;;;;;;6.47;1.88;;;;;26.40;100771.00;;;;10383433;28;20217;-79
2023/07/30 14:20:28;;;;;;;7.88;2.20;;;;;25.90;100760.00;;;;10400931;28;20205;-79
2023/07/30 14:25:29;;;;;;;7.75;2.20;;;;;25.40;100773.00;;;;10389743;28;21638;-79
2023/07/30 14:30:30;;;;;;;6.60;2.22;;;;;24.50;100780.00;;;;10396321;28;21294;-80
2023/07/30 14:35:31;;;;;;;5.75;2.08;;;;;24.10;100781.00;;;;10400751;28;20397;-78
2023/07/30 14:40:33;;;;;;;5.15;1.92;;;;;25.00;100772.00;;;;10410248;28;20231;-79
2023/07/30 14:45:34;;;;;;;5.70;2.08;;;;;26.30;100769.00;;;;10375656;28;20213;-79
2023/07/30 14:50:36;;;;;;;6.57;2.25;;;;;26.70;100778.00;;;;10416598;28;21246;-78
2023/07/30 14:55:37;;;;;;;4.53;2.13;;;;;26.40;100775.00;;;;10381048;28;20224;-76
2023/07/30 15:00:39;;;;;;;9.45;2.42;;;;;25.30;100784.00;;;;10388833;28;20601;-79
2023/07/30 15:05:41;;;;;;;6.57;2.20;;;;;24.60;100785.00;;;;10390495;28;20201;-77
2023/07/30 15:10:42;;;;;;;4.38;2.60;;;;;24.20;100788.00;;;;10387874;28;20201;-78
2023/07/30 15:15:44;;;;;;;7.93;2.60;;;;;24.00;100794.00;;;;10393539;28;21782;-79
2023/07/30 15:20:45;;;;;;;6.53;2.47;;;;;23.20;100797.00;;;;10396634;28;20201;-79
2023/07/30 15:25:48;;;;;;;7.85;2.47;;;;;22.70;100796.00;;;;10419512;28;20212;-79
2023/07/30 15:30:51;;;;;;;9.77;3.17;;;;;22.00;100828.00;;;;10385151;28;20201;-79
2023/07/30 15:35:53;;;;;;;6.70;2.50;;;;;21.20;100823.00;;;;10400480;28;20651;-78
2023/07/30 15:40:54;;;;;;;5.00;2.47;;;;;21.20;100825.00;;;;10378839;28;20269;-78
2023/07/30 15:46:01;;;;;;;8.63;2.88;;;;;21.00;100821.00;;;;10399949;28;20891;-79
2023/07/30 15:51:03;;;;;;;6.82;2.83;;;;;20.60;100828.00;;;;10356291;28;20273;-78
2023/07/30 15:56:04;;;;;;;5.53;2.50;;;;;20.30;100826.00;;;;10396691;28;20217;-79
2023/07/30 16:01:09;;;;;;;6.25;2.40;;;;;20.30;100822.00;;;;10368775;28;20209;-79
2023/07/30 16:06:11;;;;;;;6.28;3.00;;;;;20.20;100817.00;;;;10394805;28;20205;-77
2023/07/30 16:11:12;;;;;;;8.02;2.97;;;;;20.00;100834.00;;;;10394589;28;20205;-79
2023/07/30 16:16:17;;;;;;;6.90;3.33;;;;;19.90;100828.00;;;;10402808;28;20923;-77
2023/07/30 16:21:18;;;;;;;8.73;2.30;;;;;19.90;100844.00;;;;10400645;28;21029;-78
2023/07/30 16:26:20;;;;;;;5.88;2.55;;;;;19.30;100850.00;;;;10420928;28;20213;-77
2023/07/30 16:31:21;;;;;;;5.45;2.42;;;;;18.50;100864.00;;;;10415134;28;20221;-78
2023/07/30 16:36:22;;;;;;;8.63;2.47;;;;;17.90;100860.00;;;;10423654;28;20312;-77
2023/07/30 16:41:23;;;;;;;6.18;3.08;;;;;17.50;100851.00;;;;10438618;28;20212;-77
2023/07/30 16:46:25;;;;;;;7.25;3.58;;;;;17.30;100859.00;;;;10279305;28;21721;-78
2023/07/30 16:51:26;;;;;;;8.85;3.40;;;;;17.40;100847.00;;;;10280121;28;20207;-77
2023/07/30 16:56:28;;;;;;;7.53;3.10;;;;;17.40;100851.00;;;;10290661;28;20347;-77
2023/07/30 17:01:29;;;;;;;7.75;3.42;;;;;17.30;100848.00;;;;10303801;28;21687;-76
2023/07/30 17:06:31;;;;;;;7.97;3.50;;;;;17.30;100849.00;;;;10312414;28;23041;-79
2023/07/30 17:11:32;;;;;;;6.85;3.30;;;;;17.10;100847.00;;;;10358000;28;20274;-79
2023/07/30 17:16:33;;;;;;;12.02;3.50;;;;;16.90;100843.00;;;;10440827;28;22006;-76
2023/07/30 17:21:35;;;;;;;8.40;2.72;;;;;16.90;100839.00;;;;10400057;28;20348;-79
2023/07/30 17:26:36;;;;;;;6.82;2.83;;;;;16.90;100847.00;;;;10373131;28;21952;-78
2023/07/30 17:31:38;;;;;;;8.07;3.15;;;;;16.90;100835.00;;;;10390231;28;20197;-77
2023/07/30 17:36:40;;;;;;;5.50;3.13;;;;;16.80;100830.00;;;;10389886;28;20693;-77
2023/07/30 17:41:41;;;;;;;6.15;3.60;;;;;16.70;100844.00;;;;10387224;28;20227;-76
2023/07/30 17:46:43;;;;;;;6.53;2.90;;;;;16.60;100833.00;;;;10387780;28;20213;-77
2023/07/30 17:51:44;;;;;;;5.60;3.20;;;;;16.50;100836.00;;;;10406001;28;20212;-79
2023/07/30 17:56:45;;;;;;;7.68;4.00;;;;;16.60;100831.00;;;;10388475;28;20764;-79
2023/07/30 18:01:47;;;;;;;8.70;4.38;;;;;16.60;100827.00;;;;10373444;28;21179;-76
2023/07/30 18:06:48;;;;;;;6.38;3.58;;;;;16.60;100819.00;;;;10404753;28;20451;-80
2023/07/30 18:11:49;;;;;;;8.73;4.45;;;;;16.60;100818.00;;;;10408180;28;20208;-78
2023/07/30 18:16:50;;;;;;;7.78;4.00;;;;;16.60;100808.00;;;;10403287;28;21701;-79
2023/07/30 18:21:53;;;;;;;10.50;4.40;;;;;16.50;100812.00;;;;10386177;28;20204;-79
2023/07/30 18:26:54;;;;;;;7.68;4.45;;;;;16.50;100813.00;;;;10407666;28;20208;-80
2023/07/30 18:32:05;;;;;;;12.63;5.07;;;;;16.50;100820.00;;;;10376467;28;21517;-79
2023/07/30 18:37:07;;;;;;;10.73;5.72;;;;;16.50;100822.00;;;;10371514;28;20452;-80
2023/07/30 18:42:08;;;;;;;12.02;5.38;;;;;16.50;100808.00;;;;10374736;28;20208;-79
2023/07/30 18:47:09;;;;;;;16.63;5.32;;;;;16.50;100812.00;;;;10374215;28;20274;-77
2023/07/30 18:52:11;;;;;;;12.35;5.32;;;;;16.40;100802.00;;;;10406168;28;20204;-78
2023/07/30 18:57:12;;;;;;;11.57;5.15;;;;;16.40;100806.00;;;;10404695;28;20782;-76
2023/07/30 19:02:14;;;;;;;13.20;5.13;;;;;16.40;100801.00;;;;10388310;28;20216;-77
2023/07/30 19:07:15;;;;;;;11.88;6.22;;;;;16.40;100797.00;;;;10380696;28;20351;-78
2023/07/30 19:12:17;;;;;;;13.50;5.78;;;;;16.40;100797.00;;;;10402115;28;20761;-77
2023/07/30 19:17:21;;;;;;;11.40;5.63;;;;;16.30;100792.00;;;;10384199;28;20232;-78
2023/07/30 19:22:23;;;;;;;18.73;6.18;;;;;16.30;100786.00;;;;10386441;28;20811;-80
2023/07/30 19:27:24;;;;;;;12.00;5.65;;;;;16.40;100792.00;;;;10383083;28;20192;-78
2023/07/30 19:32:29;;;;;;;13.95;6.35;;;;;16.30;100781.00;;;;10387522;28;21576;-78
2023/07/30 19:37:30;;;;;;;13.77;6.32;;;;;16.40;100789.00;;;;10386737;28;20599;-78
2023/07/30 19:42:32;;;;;;;13.57;5.97;;;;;16.30;100791.00;;;;10384808;28;20222;-77
2023/07/30 19:47:33;;;;;;;11.63;5.60;;;;;16.30;100785.00;;;;10389135;28;20246;-79
2023/07/30 19:52:34;;;;;;;15.45;6.18;;;;;16.30;100789.00;;;;10393022;28;20217;-80
2023/07/30 19:57:36;;;;;;;13.02;6.53;;;;;16.30;100794.00;;;;10407049;28;20347;-79
2023/07/30 20:02:38;;;;;;;12.20;6.10;;;;;16.30;100793.00;;;;10406515;28;20208;-79
2023/07/30 20:07:42;;;;;;;15.68;5.88;;;;;16.40;100789.00;;;;10370519;28;20217;-79
2023/07/30 20:12:43;;;;;;;13.65;6.22;;;;;16.30;100786.00;;;;10384463;28;20320;-79
2023/07/30 20:17:45;;;;;;;18.27;6.28;;;;;16.40;100793.00;;;;10366811;28;20802;-77
2023/07/30 20:22:46;;;;;;;13.38;5.50;;;;;16.30;100794.00;;;;10384721;28;20700;-80
2023/07/30 20:27:47;;;;;;;16.70;6.55;;;;;16.30;100797.00;;;;10402948;28;20294;-77
2023/07/30 20:32:48;;;;;;;12.10;6.50;;;;;16.30;100796.00;;;;10385091;28;20718;-78
2023/07/30 20:37:51;;;;;;;16.05;6.18;;;;;16.30;100793.00;;;;10373523;28;20228;-78
2023/07/30 20:42:53;;;;;;;19.98;7.38;;;;;16.30;100794.00;;;;10399617;28;20559;-77
2023/07/30 20:47:55;;;;;;;16.65;6.43;;;;;16.30;100797.00;;;;10402388;28;20205;-80
2023/07/30 20:52:56;;;;;;;23.60;7.60;;;;;16.30;100792.00;;;;10386041;28;20196;-79
2023/07/30 20:57:58;;;;;;;14.52;7.05;;;;;16.30;100786.00;;;;10403536;28;20227;-79
2023/07/30 21:02:59;;;;;;;20.83;7.20;;;;;16.20;100794.00;;;;10370113;28;21372;-78
2023/07/30 21:08:01;;;;;;;17.33;6.68;;;;;16.20;100787.00;;;;10385636;28;20220;-79
2023/07/30 21:13:02;;;;;;;23.27;6.95;;;;;16.20;100788.00;;;;10382106;28;20370;-79
2023/07/30 21:18:04;;;;;;;21.42;6.88;;;;;16.20;100782.00;;;;10407594;28;20250;-80
2023/07/30 21:23:05;;;;;;;19.65;6.85;;;;;16.20;100781.00;;;;10363322;28;20243;-79
2023/07/30 21:28:06;;;;;;;19.25;6.85;;;;;16.20;100786.00;;;;10382487;28;20197;-77
2023/07/30 21:33:08;;;;;;;16.55;6.57;;;;;16.20;100782.00;;;;10401186;28;21951;-78
2023/07/30 21:38:09;;;;;;;20.50;7.70;;;;;16.10;100778.00;;;;10407619;28;20911;-79
2023/07/30 21:43:10;;;;;;;20.98;6.65;;;;;16.20;100779.00;;;;10395877;28;20203;-78
2023/07/30 21:48:12;;;;;;;19.63;6.47;;;;;16.10;100776.00;;;;10406136;28;20216;-77
2023/07/30 21:53:17;;;;;;;24.00;6.43;;;;;16.10;100770.00;;;;10390084;28;20819;-78
2023/07/30 21:58:19;;;;;;;17.98;6.55;;;;;16.10;100783.00;;;;10375825;28;20850;-78
2023/07/30 22:03:20;;;;;;;15.45;6.30;;;;;16.00;100770.00;;;;10406661;28;20769;-78
2023/07/30 22:08:22;;;;;;;21.25;6.18;;;;;16.10;100762.00;;;;10392388;28;20200;-78
2023/07/30 22:13:23;;;;;;;20.45;7.20;;;;;16.00;100771.00;;;;10379308;28;20208;-79
2023/07/30 22:18:24;;;;;;;18.90;6.50;;;;;16.00;100762.00;;;;10407345;28;20221;-78
2023/07/30 22:23:27;;;;;;;17.02;5.88;;;;;16.00;100765.00;;;;10393247;28;20928;-78
2023/07/30 22:28:28;;;;;;;21.00;6.65;;;;;16.00;100760.00;;;;10407447;28;20213;-77
2023/07/30 22:33:29;;;;;;;17.75;5.70;;;;;16.00;100746.00;;;;10391391;28;20795;-77
2023/07/30 22:38:30;;;;;;;18.35;5.80;;;;;15.90;100748.00;;;;10389300;28;20247;-77
2023/07/30 22:43:32;;;;;;;15.77;6.63;;;;;15.80;100750.00;;;;10385983;28;21274;-79
2023/07/30 22:48:33;;;;;;;17.55;5.90;;;;;15.80;100744.00;;;;10386305;28;20237;-78
2023/07/30 22:53:34;;;;;;;17.42;5.03;;;;;15.80;100742.00;;;;10370833;28;20221;-78
2023/07/30 22:58:36;;;;;;;18.33;5.35;;;;;15.70;100731.00;;;;10392628;28;20248;-79
2023/07/30 23:03:37;;;;;;;18.75;5.90;;;;;15.70;100722.00;;;;10385639;28;20927;-78
2023/07/30 23:08:40;;;;;;;15.90;6.28;;;;;15.70;100714.00;;;;10389137;28;21055;-78
2023/07/30 23:13:41;;;;;;;19.75;5.47;;;;;15.70;100716.00;;;;10388535;28;20235;-79
2023/07/30 23:18:42;;;;;;;21.73;6.38;;;;;15.70;100723.00;;;;10408757;28;20221;-79
2023/07/30 23:23:45;;;;;;;21.33;6.63;;;;;15.60;100727.00;;;;10414958;28;20201;-80
2023/07/30 23:28:46;;;;;;;19.60;5.85;;;;;15.50;100726.00;;;;10396222;28;20204;-79
2023/07/30 23:33:48;;;;;;;22.15;6.43;;;;;15.40;100731.00;;;;10392347;28;20981;-81
2023/07/30 23:38:49;;;;;;;20.45;5.82;;;;;15.30;100730.00;;;;10400160;28;21661;-78
2023/07/30 23:43:50;;;;;;;26.08;5.95;;;;;15.30;100745.00;;;;10369137;28;20213;-79
2023/07/30 23:48:51;;;;;;;28.85;7.20;;;;;15.30;100738.00;;;;10387535;28;20610;-78
2023/07/30 23:53:54;;;;;;;21.27;7.05;;;;;15.30;100714.00;;;;10396695;28;20954;-81
2023/07/30 23:58:55;;;;;;;14.32;6.25;;;;;15.30;100712.00;;;;10382068;28;20237;-78
